Time;durP1;ratioP1;P1;durP2;ratioP2;P2;SDS_P1;SDS_P2;PMS_P1;PMS_P2;Temp;Humidity;BMP_temperature;BMP_pressure;BME280_temperature;BME280_humidity;BME280_pressure;Samples;Min_cycle;Max_cycle;Signal;HPM_P1;HPM_P2
2021/05/02 00:00:07;;;;;;;12.52;9.82;;;5.20;99.90;;;;;;5070575;28;20047;-75
2021/05/02 00:02:34;;;;;;;13.90;9.35;;;5.20;99.90;;;;;;5074006;28;20028;-76
2021/05/02 00:05:00;;;;;;;14.15;9.63;;;5.20;99.90;;;;;;5076105;28;20082;-76
2021/05/02 00:07:25;;;;;;;9.77;8.52;;;5.20;99.90;;;;;;5075631;28;20032;-76
2021/05/02 00:09:51;;;;;;;8.80;8.00;;;5.20;99.90;;;;;;5075019;28;20060;-74
2021/05/02 00:12:17;;;;;;;13.45;8.80;;;5.20;99.90;;;;;;5075119;28;20108;-75
2021/05/02 00:14:42;;;;;;;11.23;8.68;;;5.30;99.90;;;;;;5061610;28;20054;-75
2021/05/02 00:17:08;;;;;;;12.27;8.85;;;5.20;99.90;;;;;;5074820;28;20052;-74
2021/05/02 00:19:37;;;;;;;9.98;8.98;;;5.20;99.90;;;;;;5075257;28;20473;-74
2021/05/02 00:22:02;;;;;;;11.98;9.10;;;5.20;99.90;;;;;;5075441;28;20024;-78
2021/05/02 00:24:28;;;;;;;9.95;8.98;;;5.20;99.90;;;;;;5074453;28;20027;-76
2021/05/02 00:26:54;;;;;;;11.70;8.65;;;5.20;99.90;;;;;;5075123;28;20099;-75
2021/05/02 00:29:20;;;;;;;10.55;9.45;;;5.20;99.90;;;;;;5075102;28;20094;-75
2021/05/02 00:31:49;;;;;;;12.38;9.90;;;5.20;99.90;;;;;;5076551;28;20545;-75
2021/05/02 00:34:15;;;;;;;10.27;8.35;;;5.10;99.90;;;;;;5077233;28;20103;-75
2021/05/02 00:36:41;;;;;;;12.13;9.52;;;5.10;99.90;;;;;;5075398;28;20020;-74
2021/05/02 00:39:07;;;;;;;12.90;8.68;;;5.10;99.90;;;;;;5074476;28;20048;-74
2021/05/02 00:41:35;;;;;;;14.52;8.93;;;5.10;99.90;;;;;;5074811;28;20025;-75
2021/05/02 00:44:08;;;;;;;10.32;8.82;;;5.00;99.90;;;;;;5074271;28;20043;-76
2021/05/02 00:46:37;;;;;;;11.25;8.48;;;5.00;99.90;;;;;;5074844;28;20419;-76
2021/05/02 00:49:15;;;;;;;10.88;8.35;;;5.00;99.90;;;;;;5075133;28;20035;-75
2021/05/02 00:51:45;;;;;;;8.95;7.53;;;5.00;99.90;;;;;;5074349;28;20056;-75
2021/05/02 00:54:15;;;;;;;10.05;8.13;;;5.00;99.90;;;;;;5074675;28;20021;-75
2021/05/02 00:56:54;;;;;;;9.70;8.20;;;4.90;99.90;;;;;;5074518;28;20082;-75
2021/05/02 00:59:32;;;;;;;9.63;8.00;;;4.90;99.90;;;;;;5074015;28;20092;-76
2021/05/02 01:02:03;;;;;;;10.27;8.77;;;4.90;99.90;;;;;;5074223;28;20047;-76
2021/05/02 01:04:30;;;;;;;;;;;4.80;99.90;;;;;;5074845;28;20052;-75
2021/05/02 01:07:04;;;;;;;9.45;8.50;;;4.70;99.90;;;;;;5073746;28;19905;-75
2021/05/02 01:09:31;;;;;;;9.50;7.82;;;4.70;99.90;;;;;;5067326;28;20397;-75
2021/05/02 01:11:59;;;;;;;10.40;8.30;;;4.80;99.90;;;;;;5074155;28;20012;-74
2021/05/02 01:14:26;;;;;;;9.60;7.70;;;4.70;99.90;;;;;;5073312;28;20025;-74
2021/05/02 01:16:55;;;;;;;9.70;7.45;;;4.60;99.90;;;;;;5074014;28;20028;-74
2021/05/02 01:19:21;;;;;;;9.50;7.75;;;4.60;99.90;;;;;;5073166;28;20111;-76
2021/05/02 01:21:49;;;;;;;8.23;7.43;;;4.60;99.90;;;;;;5073794;28;20154;-74
2021/05/02 01:24:15;;;;;;;10.95;7.95;;;4.60;99.90;;;;;;5074061;28;20044;-76
2021/05/02 01:26:43;;;;;;;13.55;7.82;;;4.60;99.90;;;;;;5073598;28;20464;-75
2021/05/02 01:29:13;;;;;;;12.95;8.13;;;4.50;99.90;;;;;;5074218;28;20036;-75
2021/05/02 01:31:40;;;;;;;13.00;7.93;;;4.50;99.90;;;;;;5073990;28;20115;-75
2021/05/02 01:34:05;;;;;;;11.45;7.90;;;4.50;99.90;;;;;;5072881;28;20029;-75
2021/05/02 01:36:31;;;;;;;9.85;7.07;;;4.50;99.90;;;;;;5073343;28;20021;-75
2021/05/02 01:38:59;;;;;;;12.00;8.13;;;4.50;99.90;;;;;;5073504;28;20075;-76
2021/05/02 01:41:25;;;;;;;8.40;7.47;;;4.50;99.90;;;;;;5073031;28;20479;-75
2021/05/02 01:43:52;;;;;;;9.07;6.93;;;4.40;99.90;;;;;;5075119;28;20064;-76
2021/05/02 01:46:25;;;;;;;8.45;7.38;;;4.40;99.90;;;;;;5074365;28;20476;-74
2021/05/02 01:48:51;;;;;;;7.75;6.38;;;4.40;99.90;;;;;;5072620;28;20036;-75
2021/05/02 01:51:19;;;;;;;8.98;7.80;;;4.40;99.90;;;;;;5073299;28;20445;-75
2021/05/02 01:53:44;;;;;;;8.98;7.00;;;4.40;99.90;;;;;;5074052;28;20060;-75
2021/05/02 01:56:14;;;;;;;15.48;9.05;;;4.30;99.90;;;;;;5072726;28;20060;-76
2021/05/02 01:58:40;;;;;;;13.27;7.35;;;4.30;99.90;;;;;;5073644;28;20040;-75
2021/05/02 02:01:09;;;;;;;9.48;7.18;;;4.30;99.90;;;;;;5073242;28;20017;-75
2021/05/02 02:03:35;;;;;;;7.65;6.60;;;4.30;99.90;;;;;;5072015;28;20028;-76
2021/05/02 02:06:02;;;;;;;7.30;6.53;;;4.20;99.90;;;;;;5072673;28;20074;-75
2021/05/02 02:08:28;;;;;;;12.27;7.38;;;4.20;99.90;;;;;;5071889;28;20040;-76
2021/05/02 02:10:54;;;;;;;12.02;8.00;;;4.20;99.90;;;;;;5073057;28;20037;-75
2021/05/02 02:13:21;;;;;;;10.48;7.38;;;4.20;99.90;;;;;;5072353;28;20025;-75
2021/05/02 02:15:48;;;;;;;9.13;6.85;;;4.20;99.90;;;;;;5071945;28;20439;-75
2021/05/02 02:18:15;;;;;;;13.07;7.88;;;4.20;99.90;;;;;;5072571;28;20025;-74
2021/05/02 02:21:00;;;;;;;8.63;7.05;;;4.20;99.90;;;;;;5072861;28;20020;-74
2021/05/02 02:23:30;;;;;;;10.90;8.20;;;4.10;99.90;;;;;;5071333;28;20377;-76
2021/05/02 02:26:29;;;;;;;10.00;7.63;;;4.10;99.90;;;;;;5072934;28;20024;-74
2021/05/02 02:28:56;;;;;;;17.98;8.40;;;4.10;99.90;;;;;;5060395;28;20124;-73
2021/05/02 02:31:25;;;;;;;12.55;8.30;;;4.10;99.90;;;;;;5071664;28;20056;-74
2021/05/02 02:33:51;;;;;;;10.57;8.45;;;4.10;99.90;;;;;;5072619;28;20396;-73
2021/05/02 02:36:18;;;;;;;14.35;8.55;;;4.10;99.90;;;;;;5072212;28;20027;-74
2021/05/02 02:38:44;;;;;;;9.70;8.45;;;4.10;99.90;;;;;;5071454;28;20048;-73
2021/05/02 02:41:18;;;;;;;11.55;8.70;;;4.10;99.90;;;;;;5072784;28;20025;-75
2021/05/02 02:43:53;;;;;;;9.73;8.82;;;4.10;99.90;;;;;;5072022;28;20029;-75
2021/05/02 02:46:20;;;;;;;14.02;9.20;;;4.10;99.90;;;;;;5072037;28;20537;-75
2021/05/02 02:48:51;;;;;;;15.27;8.93;;;4.00;99.90;;;;;;5072370;28;20041;-76
2021/05/02 02:51:18;;;;;;;10.32;8.25;;;4.10;99.90;;;;;;5071350;28;20020;-75
2021/05/02 02:53:44;;;;;;;8.90;8.05;;;4.00;99.90;;;;;;5072434;28;20028;-76
2021/05/02 02:56:14;;;;;;;11.00;8.02;;;4.00;99.90;;;;;;5072522;28;20031;-76
2021/05/02 02:58:43;;;;;;;;;;;4.00;99.90;;;;;;5072136;28;20023;-74
2021/05/02 03:01:09;;;;;;;9.20;7.15;;;3.90;99.90;;;;;;5072411;28;19957;-76
2021/05/02 03:03:40;;;;;;;8.40;7.28;;;4.00;99.90;;;;;;5071856;28;20054;-76
2021/05/02 03:06:06;;;;;;;9.50;7.18;;;3.90;99.90;;;;;;5071842;28;20032;-76
2021/05/02 03:08:35;;;;;;;8.52;7.38;;;3.90;99.90;;;;;;5071984;28;20507;-76
2021/05/02 03:11:02;;;;;;;11.05;7.10;;;3.90;99.90;;;;;;5072086;28;20024;-75
2021/05/02 03:13:28;;;;;;;15.93;9.23;;;3.80;99.90;;;;;;5071642;28;20028;-76
2021/05/02 03:15:54;;;;;;;9.38;7.28;;;3.80;99.90;;;;;;5072294;28;20134;-76
2021/05/02 03:18:47;;;;;;;11.80;8.05;;;3.80;99.90;;;;;;5071442;28;20166;-75
2021/05/02 03:21:21;;;;;;;13.15;8.18;;;3.80;99.90;;;;;;5071809;28;20088;-75
2021/05/02 03:23:51;;;;;;;8.23;7.03;;;3.80;99.90;;;;;;5072074;28;20044;-75
2021/05/02 03:26:19;;;;;;;13.00;9.00;;;3.70;99.90;;;;;;5070952;28;20112;-75
2021/05/02 03:28:58;;;;;;;8.57;7.75;;;3.70;99.90;;;;;;5071908;28;20037;-75
2021/05/02 03:31:28;;;;;;;8.75;7.93;;;3.70;99.90;;;;;;5071717;28;20380;-76
2021/05/02 03:33:58;;;;;;;15.73;9.00;;;3.70;99.90;;;;;;5071111;28;20021;-76
2021/05/02 03:36:38;;;;;;;12.52;9.13;;;3.70;99.90;;;;;;5072746;28;20171;-75
2021/05/02 03:39:05;;;;;;;13.43;9.75;;;3.70;99.90;;;;;;5063047;28;20064;-75
2021/05/02 03:41:34;;;;;;;13.52;8.30;;;3.60;99.90;;;;;;5074780;28;20039;-75
2021/05/02 03:44:00;;;;;;;9.13;7.68;;;3.60;99.90;;;;;;5075956;28;20479;-75
2021/05/02 03:46:26;;;;;;;10.45;8.65;;;3.60;99.90;;;;;;5075676;28;20095;-75
2021/05/02 03:48:57;;;;;;;10.73;8.43;;;3.60;99.90;;;;;;5075017;28;20036;-74
2021/05/02 03:51:24;;;;;;;12.30;8.15;;;3.60;99.90;;;;;;5074017;28;20029;-76
2021/05/02 03:53:50;;;;;;;9.68;7.78;;;3.60;99.90;;;;;;5075427;28;20089;-75
2021/05/02 03:56:38;;;;;;;10.10;8.50;;;3.50;99.90;;;;;;5074435;28;20415;-75
2021/05/02 03:59:12;;;;;;;10.75;7.40;;;3.60;99.90;;;;;;5075436;28;20100;-74
2021/05/02 04:01:48;;;;;;;12.07;8.07;;;3.50;99.90;;;;;;5074698;28;20022;-74
2021/05/02 04:04:16;;;;;;;11.73;7.65;;;3.50;99.90;;;;;;5074825;28;20169;-74
2021/05/02 04:06:42;;;;;;;10.82;7.05;;;3.50;99.90;;;;;;5075565;28;20048;-74
2021/05/02 04:09:11;;;;;;;8.85;6.65;;;3.50;99.90;;;;;;5074397;28;20102;-74
2021/05/02 04:11:37;;;;;;;9.68;6.78;;;3.10;99.90;;;;;;5074961;28;20380;-74
2021/05/02 04:14:05;;;;;;;16.35;7.75;;;3.50;99.90;;;;;;5075354;28;20087;-74
2021/05/02 04:16:31;;;;;;;9.32;8.10;;;3.50;99.90;;;;;;5073907;28;20380;-74
2021/05/02 04:18:56;;;;;;;9.68;6.50;;;3.50;99.90;;;;;;5075133;28;20040;-74
2021/05/02 04:21:22;;;;;;;10.15;7.30;;;3.50;99.90;;;;;;5074836;28;20021;-75
2021/05/02 04:23:48;;;;;;;9.15;6.80;;;3.50;99.90;;;;;;5074448;28;20021;-75
2021/05/02 04:26:14;;;;;;;10.60;6.80;;;3.60;99.90;;;;;;5074935;28;20089;-75
2021/05/02 04:28:40;;;;;;;7.35;6.25;;;3.60;99.90;;;;;;5074571;28;20036;-75
2021/05/02 04:31:09;;;;;;;8.50;6.95;;;3.80;99.90;;;;;;5074667;28;20024;-74
2021/05/02 04:33:34;;;;;;;9.68;6.25;;;3.80;99.90;;;;;;5074236;28;20024;-75
2021/05/02 04:36:00;;;;;;;12.77;6.10;;;3.80;99.90;;;;;;5075100;28;20526;-75
2021/05/02 04:38:26;;;;;;;7.38;5.82;;;3.90;99.90;;;;;;5073729;28;20513;-75
2021/05/02 04:40:51;;;;;;;7.20;5.68;;;3.80;99.90;;;;;;5073988;28;20044;-75
2021/05/02 04:43:17;;;;;;;14.07;5.90;;;3.80;99.90;;;;;;5073100;28;20024;-75
2021/05/02 04:45:42;;;;;;;11.95;5.63;;;3.80;99.90;;;;;;5074245;28;20024;-75
2021/05/02 04:48:08;;;;;;;8.68;4.93;;;3.90;99.90;;;;;;5073823;28;20113;-75
2021/05/02 04:50:37;;;;;;;9.23;5.18;;;3.90;99.90;;;;;;5073368;28;20025;-76
2021/05/02 04:53:03;;;;;;;11.75;5.93;;;3.90;99.90;;;;;;5074117;28;20048;-76
2021/05/02 04:55:29;;;;;;;10.85;4.82;;;4.00;99.90;;;;;;5073177;28;20435;-76
2021/05/02 04:57:57;;;;;;;7.65;5.80;;;4.10;99.90;;;;;;5072844;28;20020;-75
2021/05/02 05:00:24;;;;;;;10.30;4.55;;;4.10;99.90;;;;;;5072930;28;20051;-76
2021/05/02 05:02:53;;;;;;;7.05;4.55;;;4.20;99.90;;;;;;5072511;28;20495;-75
2021/05/02 05:05:22;;;;;;;6.22;4.07;;;4.20;99.90;;;;;;5072163;28;20107;-75
2021/05/02 05:07:47;;;;;;;7.60;4.20;;;4.20;99.90;;;;;;5073017;28;20024;-76
2021/05/02 05:10:13;;;;;;;10.95;3.75;;;4.30;99.90;;;;;;5072957;28;20036;-76
2021/05/02 05:12:40;;;;;;;7.68;4.63;;;4.50;99.90;;;;;;5072461;28;20417;-75
2021/05/02 05:15:07;;;;;;;6.70;3.75;;;4.60;99.90;;;;;;5071619;28;20159;-76
2021/05/02 05:17:33;;;;;;;9.27;3.33;;;4.80;99.90;;;;;;5072725;28;20029;-76
2021/05/02 05:19:58;;;;;;;3.85;3.40;;;5.00;99.90;;;;;;5072588;28;20021;-76
2021/05/02 05:22:24;;;;;;;4.65;3.30;;;5.10;99.90;;;;;;5072796;28;20099;-75
2021/05/02 05:24:49;;;;;;;9.18;3.53;;;5.10;99.90;;;;;;5072816;28;20043;-75
2021/05/02 05:27:15;;;;;;;10.15;3.38;;;5.20;99.90;;;;;;5071948;28;20021;-75
2021/05/02 05:29:41;;;;;;;14.48;3.13;;;5.20;99.90;;;;;;5072612;28;20028;-75
2021/05/02 05:32:06;;;;;;;11.35;3.22;;;5.20;99.90;;;;;;5073044;28;20022;-75
2021/05/02 05:34:32;;;;;;;11.35;2.97;;;5.30;99.90;;;;;;5071990;28;20531;-76
2021/05/02 05:36:58;;;;;;;5.05;2.80;;;5.30;99.90;;;;;;5072696;28;20035;-76
2021/05/02 05:39:24;;;;;;;5.43;2.92;;;5.30;99.90;;;;;;5052834;28;565195;-76
2021/05/02 05:41:50;;;;;;;6.10;2.72;;;5.40;99.90;;;;;;5073241;28;20119;-76
2021/05/02 05:44:16;;;;;;;10.27;2.90;;;5.50;99.90;;;;;;5073094;28;20108;-76
2021/05/02 05:46:42;;;;;;;9.13;2.90;;;5.60;99.90;;;;;;5073066;28;20124;-76
2021/05/02 05:49:07;;;;;;;5.78;3.25;;;5.60;99.90;;;;;;5059709;28;20115;-76
2021/05/02 05:51:33;;;;;;;6.20;2.72;;;5.70;99.90;;;;;;5073328;28;20108;-75
2021/05/02 05:53:58;;;;;;;23.40;5.50;;;5.70;99.90;;;;;;5072542;28;20078;-76
2021/05/02 05:56:24;;;;;;;8.13;2.95;;;5.80;99.90;;;;;;5073104;28;20036;-75
2021/05/02 05:58:50;;;;;;;6.10;2.72;;;5.80;99.90;;;;;;5072300;28;20476;-76
2021/05/02 06:01:15;;;;;;;7.30;2.90;;;5.80;99.90;;;;;;5072199;28;20082;-76
2021/05/02 06:03:41;;;;;;;6.90;2.83;;;5.90;99.90;;;;;;5073037;28;20024;-76
2021/05/02 06:06:07;;;;;;;6.78;2.90;;;6.00;99.90;;;;;;5072918;28;20522;-76
2021/05/02 06:08:32;;;;;;;9.20;2.58;;;6.00;99.90;;;;;;5071689;28;20036;-76
2021/05/02 06:10:58;;;;;;;12.80;2.65;;;6.10;99.90;;;;;;5072962;28;20031;-76
2021/05/02 06:13:24;;;;;;;7.45;3.45;;;6.20;99.90;;;;;;5072034;28;20468;-76
2021/05/02 06:15:49;;;;;;;2.58;2.38;;;6.40;99.90;;;;;;5071811;28;20032;-76
2021/05/02 06:18:15;;;;;;;7.53;2.70;;;6.60;99.90;;;;;;5072382;28;20024;-75
2021/05/02 06:20:40;;;;;;;6.57;3.10;;;6.70;99.90;;;;;;5072177;28;20020;-76
2021/05/02 06:23:12;;;;;;;5.78;2.35;;;6.70;99.90;;;;;;5071863;28;20035;-74
2021/05/02 06:25:38;;;;;;;4.45;2.95;;;6.60;99.90;;;;;;5072863;28;20063;-76
2021/05/02 06:28:03;;;;;;;4.45;2.13;;;6.60;99.90;;;;;;5072058;28;20135;-76
2021/05/02 06:30:29;;;;;;;5.28;2.45;;;6.60;99.90;;;;;;5071552;28;20064;-76
2021/05/02 06:32:55;;;;;;;4.70;2.50;;;6.60;99.90;;;;;;5072420;28;20027;-77
2021/05/02 06:35:20;;;;;;;5.95;2.40;;;6.70;99.90;;;;;;5072010;28;20031;-77
2021/05/02 06:37:46;;;;;;;8.45;2.20;;;6.70;99.90;;;;;;5071625;28;20028;-76
2021/05/02 06:40:12;;;;;;;4.32;1.85;;;6.90;99.90;;;;;;5071799;28;20526;-77
2021/05/02 06:42:37;;;;;;;3.30;1.90;;;7.30;99.90;;;;;;5072014;28;20047;-76
2021/05/02 06:45:04;;;;;;;7.05;2.63;;;7.10;99.90;;;;;;5071413;28;20020;-77
2021/05/02 06:47:30;;;;;;;6.32;1.90;;;7.20;99.90;;;;;;5072039;28;20116;-77
2021/05/02 06:49:56;;;;;;;4.57;2.33;;;7.30;99.90;;;;;;5071344;28;20097;-76
2021/05/02 06:52:22;;;;;;;2.17;1.60;;;7.40;99.90;;;;;;5073054;28;20017;-77
2021/05/02 06:54:48;;;;;;;7.00;2.03;;;7.50;99.90;;;;;;5074630;28;20439;-77
2021/05/02 06:57:14;;;;;;;4.40;1.75;;;7.60;99.90;;;;;;5070622;28;20021;-76
2021/05/02 06:59:40;;;;;;;2.10;1.80;;;7.70;99.90;;;;;;5071866;28;20484;-77
2021/05/02 07:02:06;;;;;;;1.58;1.48;;;7.90;99.90;;;;;;5072068;28;20031;-77
2021/05/02 07:04:34;;;;;;;5.88;2.00;;;8.00;99.90;;;;;;5071739;28;20408;-76
2021/05/02 07:07:01;;;;;;;2.88;1.73;;;8.10;99.90;;;;;;5072124;28;20485;-76
2021/05/02 07:09:28;;;;;;;3.78;1.73;;;8.30;99.90;;;;;;5071571;28;20059;-77
2021/05/02 07:11:53;;;;;;;4.03;1.80;;;8.40;99.90;;;;;;5070829;28;20020;-77
2021/05/02 07:14:19;;;;;;;0.95;0.90;;;8.60;99.90;;;;;;5071375;28;20035;-77
2021/05/02 07:16:45;;;;;;;4.90;1.33;;;8.70;99.90;;;;;;5071887;28;20381;-76
2021/05/02 07:19:12;;;;;;;2.90;1.50;;;8.60;99.90;;;;;;5071199;28;20138;-76
2021/05/02 07:21:37;;;;;;;2.08;1.10;;;8.70;99.90;;;;;;5071654;28;20020;-77
2021/05/02 07:24:03;;;;;;;2.65;1.30;;;8.80;99.90;;;;;;5071842;28;20028;-76
2021/05/02 07:26:29;;;;;;;5.32;1.48;;;8.90;99.90;;;;;;5070476;28;20353;-76
2021/05/02 07:28:54;;;;;;;6.88;1.58;;;9.00;99.90;;;;;;5071810;28;20075;-77
2021/05/02 07:31:20;;;;;;;3.78;1.35;;;9.00;99.90;;;;;;5071283;28;20383;-76
2021/05/02 07:33:46;;;;;;;4.97;1.55;;;9.00;99.90;;;;;;5070787;28;20556;-77
2021/05/02 07:36:14;;;;;;;1.33;1.10;;;9.00;99.90;;;;;;5071695;28;20024;-77
2021/05/02 07:38:42;;;;;;;1.92;1.50;;;8.90;99.90;;;;;;5071154;28;20114;-76
2021/05/02 07:41:07;;;;;;;1.90;1.70;;;8.80;99.90;;;;;;5070785;28;20039;-76
2021/05/02 07:43:33;;;;;;;3.67;1.40;;;8.80;99.90;;;;;;5071246;28;20028;-76
2021/05/02 07:46:00;;;;;;;6.15;1.80;;;8.80;99.90;;;;;;5071302;28;20020;-75
2021/05/02 07:48:25;;;;;;;5.00;1.60;;;8.90;99.90;;;;;;5070651;28;20032;-77
2021/05/02 07:50:51;;;;;;;4.78;1.30;;;9.10;99.90;;;;;;5071669;28;20024;-76
2021/05/02 07:53:18;;;;;;;6.60;1.40;;;9.20;99.90;;;;;;5070440;28;20024;-77
2021/05/02 07:55:44;;;;;;;2.10;1.17;;;9.30;99.90;;;;;;5070778;28;20012;-77
2021/05/02 07:58:09;;;;;;;4.82;1.33;;;9.40;99.90;;;;;;5071465;28;20025;-76
2021/05/02 08:00:37;;;;;;;2.53;1.70;;;9.30;99.90;;;;;;5070609;28;20465;-77
2021/05/02 08:03:03;;;;;;;2.15;1.50;;;9.20;99.90;;;;;;5071636;28;20108;-76
2021/05/02 08:05:32;;;;;;;4.57;1.58;;;9.20;99.90;;;;;;5071065;28;20044;-76
2021/05/02 08:07:59;;;;;;;5.50;1.52;;;9.20;99.90;;;;;;5070478;28;20103;-78
2021/05/02 08:10:25;;;;;;;1.27;1.17;;;9.30;99.90;;;;;;5070924;28;20483;-78
2021/05/02 08:12:54;;;;;;;6.38;1.45;;;9.50;99.90;;;;;;5071234;28;20112;-76
2021/05/02 08:15:19;;;;;;;4.22;1.40;;;9.70;99.90;;;;;;5070860;28;20424;-76
2021/05/02 08:17:45;;;;;;;2.78;1.67;;;9.90;99.90;;;;;;5071500;28;20029;-77
2021/05/02 08:20:12;;;;;;;2.25;1.25;;;9.90;99.90;;;;;;5070789;28;20461;-77
2021/05/02 08:22:37;;;;;;;4.45;1.50;;;10.00;99.90;;;;;;5071780;28;20036;-77
2021/05/02 08:25:05;;;;;;;2.70;1.20;;;10.00;99.90;;;;;;5075481;28;20028;-77
2021/05/02 08:27:31;;;;;;;1.77;1.10;;;10.00;99.90;;;;;;5076243;28;20032;-79
2021/05/02 08:29:56;;;;;;;2.72;1.33;;;10.10;99.90;;;;;;5075912;28;20458;-77
2021/05/02 08:32:22;;;;;;;5.93;1.58;;;10.20;99.90;;;;;;5078357;28;20465;-77
2021/05/02 08:34:48;;;;;;;3.55;1.40;;;10.20;99.90;;;;;;5078008;28;20056;-76
2021/05/02 08:37:14;;;;;;;4.57;1.90;;;10.40;99.90;;;;;;5075069;28;20013;-77
2021/05/02 08:39:39;;;;;;;2.08;1.40;;;10.50;99.90;;;;;;5076348;28;20063;-76
2021/05/02 08:42:05;;;;;;;3.88;1.52;;;10.50;99.90;;;;;;5076430;28;20066;-77
2021/05/02 08:44:31;;;;;;;3.20;1.38;;;10.40;99.90;;;;;;5074459;28;20102;-77
2021/05/02 08:46:56;;;;;;;2.65;1.52;;;10.20;99.90;;;;;;5075002;28;20095;-77
2021/05/02 08:49:22;;;;;;;5.35;1.50;;;10.00;99.90;;;;;;5073600;28;20039;-77
2021/05/02 08:51:48;;;;;;;4.20;1.75;;;10.00;99.90;;;;;;5074649;28;20410;-78
2021/05/02 08:54:15;;;;;;;1.88;1.60;;;9.90;99.90;;;;;;5075503;28;20040;-77
2021/05/02 08:56:41;;;;;;;3.28;1.63;;;10.10;99.90;;;;;;5075380;28;20141;-78
2021/05/02 08:59:08;;;;;;;1.52;1.40;;;10.30;99.90;;;;;;5075875;28;20031;-77
2021/05/02 09:01:34;;;;;;;3.72;1.40;;;10.50;99.90;;;;;;5075591;28;20028;-76
2021/05/02 09:04:05;;;;;;;2.83;1.23;;;10.70;99.90;;;;;;5074415;28;20494;-76
2021/05/02 09:06:31;;;;;;;1.75;1.38;;;11.10;99.90;;;;;;5074499;28;20472;-76
2021/05/02 09:09:04;;;;;;;3.28;1.70;;;11.10;99.70;;;;;;5074649;28;20040;-77
2021/05/02 09:11:34;;;;;;;3.63;1.30;;;11.00;99.90;;;;;;5074074;28;20492;-76
2021/05/02 09:14:02;;;;;;;2.35;1.48;;;10.70;99.90;;;;;;5074097;28;20067;-76
2021/05/02 09:16:28;;;;;;;2.90;1.63;;;10.10;99.90;;;;;;5074631;28;20109;-77
2021/05/02 09:18:59;;;;;;;1.60;1.50;;;9.60;99.90;;;;;;5073807;28;20111;-78
2021/05/02 09:21:24;;;;;;;2.28;1.20;;;9.10;99.90;;;;;;5074177;28;20027;-76
2021/05/02 09:23:50;;;;;;;1.80;1.05;;;8.60;99.90;;;;;;5074054;28;20025;-76
2021/05/02 09:26:24;;;;;;;1.63;0.88;;;8.30;99.90;;;;;;5073327;28;20052;-76
2021/05/02 09:28:52;;;;;;;1.83;0.90;;;7.90;99.90;;;;;;5060704;28;20036;-77
2021/05/02 09:31:31;;;;;;;1.48;1.20;;;7.80;99.90;;;;;;5074077;28;20020;-76
2021/05/02 09:34:18;;;;;;;1.00;0.90;;;7.70;99.90;;;;;;5059786;28;20021;-76
2021/05/02 09:37:06;;;;;;;1.17;1.05;;;7.60;99.90;;;;;;5073701;28;20033;-78
2021/05/02 09:39:52;;;;;;;2.10;1.02;;;7.70;99.90;;;;;;5072447;28;20500;-77
2021/05/02 09:42:19;;;;;;;0.98;0.98;;;7.80;99.90;;;;;;5073364;28;20085;-78
2021/05/02 09:44:50;;;;;;;5.13;1.15;;;8.00;99.90;;;;;;5073781;28;20029;-76
2021/05/02 09:47:30;;;;;;;3.50;1.40;;;8.10;99.90;;;;;;5072218;28;20028;-77
2021/05/02 09:50:19;;;;;;;4.15;1.38;;;8.40;99.90;;;;;;5073534;28;20143;-77
2021/05/02 09:53:02;;;;;;;2.67;1.70;;;8.60;99.90;;;;;;5060766;28;20161;-77
2021/05/02 09:55:34;;;;;;;2.78;1.73;;;8.90;99.90;;;;;;5071832;28;20063;-77
2021/05/02 09:58:19;;;;;;;1.98;1.65;;;9.10;99.90;;;;;;5073562;28;20024;-77
2021/05/02 10:00:55;;;;;;;1.70;1.38;;;9.30;99.90;;;;;;5072505;28;20071;-76
2021/05/02 10:03:26;;;;;;;8.13;2.08;;;9.60;99.90;;;;;;5073071;28;20035;-77
2021/05/02 10:05:56;;;;;;;2.92;1.02;;;9.90;99.90;;;;;;5072807;28;20461;-77
2021/05/02 10:08:25;;;;;;;1.85;1.17;;;10.10;99.90;;;;;;5076075;28;20147;-77
2021/05/02 10:10:51;;;;;;;8.07;1.90;;;10.30;99.90;;;;;;5073342;28;20072;-76
2021/05/02 10:13:18;;;;;;;1.58;1.02;;;10.40;99.90;;;;;;5073398;28;20373;-77
2021/05/02 10:15:43;;;;;;;1.60;1.40;;;10.50;99.90;;;;;;5072650;28;20028;-77
2021/05/02 10:18:09;;;;;;;4.90;1.25;;;10.50;99.90;;;;;;5073024;28;20047;-77
2021/05/02 10:20:40;;;;;;;5.03;1.33;;;10.50;99.90;;;;;;5072766;28;20031;-76
2021/05/02 10:23:07;;;;;;;1.10;1.00;;;10.50;99.90;;;;;;5072204;28;20082;-77
2021/05/02 10:25:35;;;;;;;2.28;1.15;;;10.70;99.90;;;;;;5072427;28;20085;-76
2021/05/02 10:28:01;;;;;;;2.55;1.20;;;10.90;99.90;;;;;;5072212;28;20373;-76
2021/05/02 10:30:29;;;;;;;2.45;0.88;;;11.10;99.90;;;;;;5071041;28;20035;-77
2021/05/02 10:33:34;;;;;;;2.10;1.00;;;11.10;98.60;;;;;;5073758;28;20029;-75
2021/05/02 10:36:05;;;;;;;2.15;1.17;;;11.20;98.60;;;;;;5054659;28;20056;-77
2021/05/02 10:38:46;;;;;;;2.00;1.50;;;11.40;99.40;;;;;;5073593;28;20063;-77
2021/05/02 10:41:21;;;;;;;4.15;1.23;;;11.50;98.10;;;;;;5073134;28;20070;-77
2021/05/02 10:43:48;;;;;;;2.88;1.10;;;11.60;98.70;;;;;;5072128;28;20509;-78
2021/05/02 10:46:57;;;;;;;2.60;0.88;;;11.50;97.40;;;;;;5072468;28;20056;-77
2021/05/02 10:49:22;;;;;;;2.13;0.90;;;11.40;97.50;;;;;;5009995;28;20045;-77
2021/05/02 10:51:55;;;;;;;1.05;0.80;;;11.50;96.20;;;;;;5012042;28;20394;-78
2021/05/02 10:54:23;;;;;;;1.95;1.40;;;11.60;96.00;;;;;;5010568;28;20033;-78
2021/05/02 10:56:48;;;;;;;2.13;1.08;;;11.60;94.70;;;;;;5024079;28;20080;-75
2021/05/02 10:59:15;;;;;;;1.00;0.80;;;11.70;94.80;;;;;;5075573;28;20039;-77
2021/05/02 11:01:41;;;;;;;5.18;1.20;;;11.70;95.20;;;;;;5072994;28;20166;-77
2021/05/02 11:04:07;;;;;;;2.15;0.95;;;11.50;93.70;;;;;;5071835;28;20165;-77
2021/05/02 11:06:39;;;;;;;1.92;0.85;;;11.40;95.30;;;;;;5073966;28;20488;-77
2021/05/02 11:09:18;;;;;;;2.00;1.15;;;11.50;94.90;;;;;;5073970;28;20392;-78
2021/05/02 11:11:50;;;;;;;1.25;1.15;;;11.50;96.10;;;;;;5075849;28;20024;-79
2021/05/02 11:14:18;;;;;;;3.42;0.98;;;11.80;96.10;;;;;;5076008;28;20084;-79
2021/05/02 11:16:59;;;;;;;3.75;0.98;;;11.80;94.20;;;;;;5072566;28;20499;-77
2021/05/02 11:19:35;;;;;;;0.90;0.88;;;11.80;94.10;;;;;;5071020;28;20020;-76
2021/05/02 11:22:10;;;;;;;2.67;0.80;;;11.90;92.50;;;;;;5072033;28;20048;-77
2021/05/02 11:24:38;;;;;;;4.22;0.98;;;11.90;89.80;;;;;;5071286;28;20495;-78
2021/05/02 11:27:07;;;;;;;2.30;1.10;;;11.90;93.10;;;;;;5058780;28;20040;-78
2021/05/02 11:29:48;;;;;;;2.05;1.00;;;12.20;93.10;;;;;;5072298;28;20044;-78
2021/05/02 11:32:33;;;;;;;1.52;0.90;;;12.40;93.20;;;;;;5071341;28;20051;-77
2021/05/02 11:35:03;;;;;;;5.00;1.10;;;12.40;89.40;;;;;;5071975;28;20027;-76
2021/05/02 11:37:43;;;;;;;1.30;1.00;;;12.30;90.90;;;;;;5071393;28;20025;-76
2021/05/02 11:40:18;;;;;;;3.03;0.90;;;12.20;90.50;;;;;;5070600;28;20056;-77
2021/05/02 11:43:25;;;;;;;1.10;1.00;;;12.20;90.30;;;;;;5072334;28;20029;-76
2021/05/02 11:46:00;;;;;;;1.63;0.70;;;12.30;92.90;;;;;;5071190;28;20023;-78
2021/05/02 11:48:35;;;;;;;2.40;1.17;;;12.20;91.40;;;;;;5071621;28;20028;-77
2021/05/02 11:51:12;;;;;;;2.70;1.15;;;12.10;94.40;;;;;;5072361;28;20020;-77
2021/05/02 11:53:45;;;;;;;2.95;1.20;;;11.70;97.00;;;;;;5071705;28;20078;-78
2021/05/02 11:56:14;;;;;;;1.92;1.23;;;11.20;98.20;;;;;;5072574;28;20111;-76
2021/05/02 11:58:39;;;;;;;2.47;0.82;;;11.00;99.90;;;;;;5075085;28;20021;-78
2021/05/02 12:01:12;;;;;;;4.43;2.13;;;10.90;99.90;;;;;;5075637;28;20035;-77
2021/05/02 12:03:39;;;;;;;2.17;0.98;;;10.80;99.90;;;;;;5076202;28;20107;-76
2021/05/02 12:06:09;;;;;;;2.28;1.10;;;10.70;99.90;;;;;;5075654;28;20062;-77
2021/05/02 12:08:35;;;;;;;4.05;1.40;;;10.90;99.90;;;;;;5074382;28;20029;-77
2021/05/02 12:11:04;;;;;;;1.45;1.33;;;10.90;99.90;;;;;;5075193;28;20043;-76
2021/05/02 12:13:52;;;;;;;2.33;1.33;;;11.10;99.90;;;;;;5074226;28;20074;-77
2021/05/02 12:16:23;;;;;;;2.08;1.00;;;11.30;99.90;;;;;;5075059;28;20047;-77
2021/05/02 12:18:57;;;;;;;3.42;1.13;;;11.60;99.90;;;;;;5075040;28;20027;-77
2021/05/02 12:21:26;;;;;;;3.90;2.13;;;11.30;99.40;;;;;;5074033;28;20107;-77
2021/05/02 12:23:53;;;;;;;4.47;1.83;;;11.30;99.90;;;;;;5075121;28;20052;-76
2021/05/02 12:26:19;;;;;;;3.00;0.80;;;11.40;99.30;;;;;;5074590;28;20444;-77
2021/05/02 12:28:46;;;;;;;2.78;0.90;;;11.40;98.30;;;;;;5074452;28;20111;-76
2021/05/02 12:31:13;;;;;;;3.22;0.80;;;11.30;96.00;;;;;;5075250;28;20063;-77
2021/05/02 12:33:41;;;;;;;0.95;0.80;;;11.30;96.00;;;;;;5074703;28;20025;-76
2021/05/02 12:36:10;;;;;;;2.50;1.35;;;11.40;96.70;;;;;;5074225;28;20375;-77
2021/05/02 12:38:36;;;;;;;2.88;1.00;;;11.30;96.30;;;;;;5073969;28;20156;-77
2021/05/02 12:41:02;;;;;;;4.28;0.85;;;11.40;96.20;;;;;;5074841;28;20029;-77
2021/05/02 12:43:30;;;;;;;1.88;1.20;;;11.70;94.80;;;;;;5073954;28;20047;-77
2021/05/02 12:45:57;;;;;;;1.55;0.60;;;12.00;96.20;;;;;;5075091;28;20017;-78
2021/05/02 12:48:28;;;;;;;4.05;0.90;;;12.20;93.00;;;;;;5074246;28;20500;-77
2021/05/02 12:50:55;;;;;;;0.75;0.75;;;12.40;91.40;;;;;;5075303;28;20036;-77
2021/05/02 12:53:21;;;;;;;1.23;1.10;;;12.50;91.80;;;;;;5074356;28;20392;-77
2021/05/02 12:55:55;;;;;;;1.05;0.80;;;12.60;90.30;;;;;;5074509;28;20025;-77
2021/05/02 12:58:42;;;;;;;2.42;1.00;;;12.60;89.90;;;;;;5076098;28;20028;-78
2021/05/02 13:01:17;;;;;;;1.52;0.95;;;12.50;91.20;;;;;;5076692;28;20452;-77